sensor_id;sensor_type;location;lat;lon;timestamp;temperature;humidity
28175;SHT30;59417;44.788;10.334;2024-01-10T00:01:15;6.67;64.79
28175;SHT30;59417;44.788;10.334;2024-01-10T00:03:43;6.73;64.43
28175;SHT30;59417;44.788;10.334;2024-01-10T00:06:10;6.74;64.27
28175;SHT30;59417;44.788;10.334;2024-01-10T00:08:37;6.71;64.36
28175;SHT30;59417;44.788;10.334;2024-01-10T00:11:03;6.70;64.24
28175;SHT30;59417;44.788;10.334;2024-01-10T00:13:31;6.70;64.57
28175;SHT30;59417;44.788;10.334;2024-01-10T00:15:58;6.65;64.71
28175;SHT30;59417;44.788;10.334;2024-01-10T00:18:25;6.63;64.87
28175;SHT30;59417;44.788;10.334;2024-01-10T00:20:52;6.55;64.79
28175;SHT30;59417;44.788;10.334;2024-01-10T00:23:22;6.55;64.67
28175;SHT30;59417;44.788;10.334;2024-01-10T00:25:48;6.48;64.45
28175;SHT30;59417;44.788;10.334;2024-01-10T00:28:14;6.44;64.34
28175;SHT30;59417;44.788;10.334;2024-01-10T00:30:44;6.40;63.96
28175;SHT30;59417;44.788;10.334;2024-01-10T00:33:16;6.40;64.19
28175;SHT30;59417;44.788;10.334;2024-01-10T00:35:42;6.30;64.58
28175;SHT30;59417;44.788;10.334;2024-01-10T00:38:08;6.26;64.78
28175;SHT30;59417;44.788;10.334;2024-01-10T00:40:34;6.33;64.69
28175;SHT30;59417;44.788;10.334;2024-01-10T00:43:01;6.45;64.18
28175;SHT30;59417;44.788;10.334;2024-01-10T00:45:27;6.38;64.14
28175;SHT30;59417;44.788;10.334;2024-01-10T00:47:54;6.36;64.56
28175;SHT30;59417;44.788;10.334;2024-01-10T00:50:21;6.26;64.65
28175;SHT30;59417;44.788;10.334;2024-01-10T00:52:47;6.19;64.59
28175;SHT30;59417;44.788;10.334;2024-01-10T00:55:13;6.23;64.38
28175;SHT30;59417;44.788;10.334;2024-01-10T00:57:39;6.29;64.43
28175;SHT30;59417;44.788;10.334;2024-01-10T01:00:09;6.09;63.96
28175;SHT30;59417;44.788;10.334;2024-01-10T01:02:36;6.06;64.09
28175;SHT30;59417;44.788;10.334;2024-01-10T01:05:05;6.06;64.07
28175;SHT30;59417;44.788;10.334;2024-01-10T01:07:33;6.06;64.19
28175;SHT30;59417;44.788;10.334;2024-01-10T01:09:59;6.09;64.22
28175;SHT30;59417;44.788;10.334;2024-01-10T01:12:27;6.13;63.66
28175;SHT30;59417;44.788;10.334;2024-01-10T01:15:04;6.17;63.79
28175;SHT30;59417;44.788;10.334;2024-01-10T01:17:37;6.19;63.94
28175;SHT30;59417;44.788;10.334;2024-01-10T01:20:11;6.17;64.18
28175;SHT30;59417;44.788;10.334;2024-01-10T01:22:41;6.20;64.29
28175;SHT30;59417;44.788;10.334;2024-01-10T01:25:21;6.20;64.28
28175;SHT30;59417;44.788;10.334;2024-01-10T01:27:52;6.17;64.07
28175;SHT30;59417;44.788;10.334;2024-01-10T01:30:27;6.17;63.92
28175;SHT30;59417;44.788;10.334;2024-01-10T01:33:02;6.17;63.81
28175;SHT30;59417;44.788;10.334;2024-01-10T01:35:33;6.03;63.85
28175;SHT30;59417;44.788;10.334;2024-01-10T01:38:21;6.09;64.13
28175;SHT30;59417;44.788;10.334;2024-01-10T01:40:50;6.10;64.25
28175;SHT30;59417;44.788;10.334;2024-01-10T01:43:35;5.93;64.28
28175;SHT30;59417;44.788;10.334;2024-01-10T01:46:06;5.85;65.13
28175;SHT30;59417;44.788;10.334;2024-01-10T01:48:42;5.78;65.55
28175;SHT30;59417;44.788;10.334;2024-01-10T01:51:11;6.03;65.28
28175;SHT30;59417;44.788;10.334;2024-01-10T01:53:44;5.79;66.18
28175;SHT30;59417;44.788;10.334;2024-01-10T01:56:15;5.74;66.53
28175;SHT30;59417;44.788;10.334;2024-01-10T01:58:51;5.69;66.99
28175;SHT30;59417;44.788;10.334;2024-01-10T02:01:18;5.55;67.32
28175;SHT30;59417;44.788;10.334;2024-01-10T02:03:47;5.49;67.78
28175;SHT30;59417;44.788;10.334;2024-01-10T02:06:13;5.47;67.83
28175;SHT30;59417;44.788;10.334;2024-01-10T02:08:39;5.42;67.79
28175;SHT30;59417;44.788;10.334;2024-01-10T02:11:06;5.47;67.70
28175;SHT30;59417;44.788;10.334;2024-01-10T02:13:33;5.38;68.03
28175;SHT30;59417;44.788;10.334;2024-01-10T02:16:00;5.42;68.02
28175;SHT30;59417;44.788;10.334;2024-01-10T02:18:27;5.34;67.88
28175;SHT30;59417;44.788;10.334;2024-01-10T02:20:53;5.26;68.31
28175;SHT30;59417;44.788;10.334;2024-01-10T02:23:21;5.27;68.79
28175;SHT30;59417;44.788;10.334;2024-01-10T02:25:47;5.30;68.40
28175;SHT30;59417;44.788;10.334;2024-01-10T02:28:13;5.21;68.31
28175;SHT30;59417;44.788;10.334;2024-01-10T02:30:40;5.16;68.49
28175;SHT30;59417;44.788;10.334;2024-01-10T02:33:06;5.06;68.98
28175;SHT30;59417;44.788;10.334;2024-01-10T02:35:32;4.92;69.50
28175;SHT30;59417;44.788;10.334;2024-01-10T02:37:58;4.87;69.83
28175;SHT30;59417;44.788;10.334;2024-01-10T02:40:24;4.96;69.74
28175;SHT30;59417;44.788;10.334;2024-01-10T02:42:51;4.92;69.73
28175;SHT30;59417;44.788;10.334;2024-01-10T02:45:17;4.75;70.04
28175;SHT30;59417;44.788;10.334;2024-01-10T02:47:44;4.82;70.05
28175;SHT30;59417;44.788;10.334;2024-01-10T02:50:10;4.84;69.96
28175;SHT30;59417;44.788;10.334;2024-01-10T02:52:36;4.90;69.84
28175;SHT30;59417;44.788;10.334;2024-01-10T02:55:04;4.94;69.96
28175;SHT30;59417;44.788;10.334;2024-01-10T02:57:32;4.96;70.03
28175;SHT30;59417;44.788;10.334;2024-01-10T02:59:58;4.97;70.02
28175;SHT30;59417;44.788;10.334;2024-01-10T03:02:36;5.04;69.49
28175;SHT30;59417;44.788;10.334;2024-01-10T03:05:06;4.87;69.72
28175;SHT30;59417;44.788;10.334;2024-01-10T03:07:36;4.90;69.96
28175;SHT30;59417;44.788;10.334;2024-01-10T03:10:08;5.06;69.51
28175;SHT30;59417;44.788;10.334;2024-01-10T03:12:37;5.06;69.51
28175;SHT30;59417;44.788;10.334;2024-01-10T03:15:05;5.00;69.65
28175;SHT30;59417;44.788;10.334;2024-01-10T03:17:34;4.99;69.57
28175;SHT30;59417;44.788;10.334;2024-01-10T03:20:04;4.89;69.99
28175;SHT30;59417;44.788;10.334;2024-01-10T03:22:39;4.89;70.19
28175;SHT30;59417;44.788;10.334;2024-01-10T03:25:09;4.82;70.59
28175;SHT30;59417;44.788;10.334;2024-01-10T03:27:41;4.80;70.64
28175;SHT30;59417;44.788;10.334;2024-01-10T03:30:11;4.83;70.66
28175;SHT30;59417;44.788;10.334;2024-01-10T03:32:39;4.75;70.83
28175;SHT30;59417;44.788;10.334;2024-01-10T03:35:08;4.79;71.01
28175;SHT30;59417;44.788;10.334;2024-01-10T03:37:34;4.80;70.97
28175;SHT30;59417;44.788;10.334;2024-01-10T03:40:00;4.82;70.98
28175;SHT30;59417;44.788;10.334;2024-01-10T03:42:26;4.82;70.77
28175;SHT30;59417;44.788;10.334;2024-01-10T03:44:52;4.89;70.69
28175;SHT30;59417;44.788;10.334;2024-01-10T03:47:18;4.69;71.46
28175;SHT30;59417;44.788;10.334;2024-01-10T03:49:44;4.80;71.02
28175;SHT30;59417;44.788;10.334;2024-01-10T03:52:10;4.71;71.20
28175;SHT30;59417;44.788;10.334;2024-01-10T03:54:38;4.71;70.81
28175;SHT30;59417;44.788;10.334;2024-01-10T03:57:06;4.66;71.02
28175;SHT30;59417;44.788;10.334;2024-01-10T03:59:32;4.73;71.08
28175;SHT30;59417;44.788;10.334;2024-01-10T04:02:06;4.79;71.11
28175;SHT30;59417;44.788;10.334;2024-01-10T04:04:38;4.68;71.19
28175;SHT30;59417;44.788;10.334;2024-01-10T04:07:17;4.52;71.37
28175;SHT30;59417;44.788;10.334;2024-01-10T04:09:42;4.52;71.38
28175;SHT30;59417;44.788;10.334;2024-01-10T04:12:09;4.44;71.48
28175;SHT30;59417;44.788;10.334;2024-01-10T04:14:38;4.25;72.08
28175;SHT30;59417;44.788;10.334;2024-01-10T04:17:56;4.33;72.20
28175;SHT30;59417;44.788;10.334;2024-01-10T04:20:08;4.39;72.27
28175;SHT30;59417;44.788;10.334;2024-01-10T04:23:00;4.49;71.39
28175;SHT30;59417;44.788;10.334;2024-01-10T04:26:04;4.33;71.60
28175;SHT30;59417;44.788;10.334;2024-01-10T04:28:34;4.39;71.83
28175;SHT30;59417;44.788;10.334;2024-01-10T04:31:22;4.26;72.23
28175;SHT30;59417;44.788;10.334;2024-01-10T04:33:54;4.20;72.49
28175;SHT30;59417;44.788;10.334;2024-01-10T04:36:24;4.24;72.65
28175;SHT30;59417;44.788;10.334;2024-01-10T04:39:12;3.97;73.51
28175;SHT30;59417;44.788;10.334;2024-01-10T04:41:37;4.11;73.48
28175;SHT30;59417;44.788;10.334;2024-01-10T04:44:03;4.20;72.94
28175;SHT30;59417;44.788;10.334;2024-01-10T04:46:29;4.26;72.88
28175;SHT30;59417;44.788;10.334;2024-01-10T04:48:54;4.25;72.73
28175;SHT30;59417;44.788;10.334;2024-01-10T04:51:20;4.59;71.76
28175;SHT30;59417;44.788;10.334;2024-01-10T04:53:46;4.63;71.48
28175;SHT30;59417;44.788;10.334;2024-01-10T04:56:11;4.69;71.47
28175;SHT30;59417;44.788;10.334;2024-01-10T04:58:37;4.51;71.96
28175;SHT30;59417;44.788;10.334;2024-01-10T05:01:04;4.38;72.61
28175;SHT30;59417;44.788;10.334;2024-01-10T05:03:35;4.59;72.17
28175;SHT30;59417;44.788;10.334;2024-01-10T05:06:04;4.44;72.80
28175;SHT30;59417;44.788;10.334;2024-01-10T05:08:33;4.32;73.22
28175;SHT30;59417;44.788;10.334;2024-01-10T05:11:09;4.28;73.25
28175;SHT30;59417;44.788;10.334;2024-01-10T05:13:48;4.32;73.15
28175;SHT30;59417;44.788;10.334;2024-01-10T05:16:16;4.29;72.70
28175;SHT30;59417;44.788;10.334;2024-01-10T05:18:48;4.38;72.69
28175;SHT30;59417;44.788;10.334;2024-01-10T05:21:16;4.61;71.68
28175;SHT30;59417;44.788;10.334;2024-01-10T05:23:44;4.61;71.51
28175;SHT30;59417;44.788;10.334;2024-01-10T05:26:14;4.41;72.14
28175;SHT30;59417;44.788;10.334;2024-01-10T05:28:42;4.42;72.38
28175;SHT30;59417;44.788;10.334;2024-01-10T05:31:14;4.15;73.44
28175;SHT30;59417;44.788;10.334;2024-01-10T05:33:46;4.15;74.15
28175;SHT30;59417;44.788;10.334;2024-01-10T05:36:34;4.11;74.53
28175;SHT30;59417;44.788;10.334;2024-01-10T05:39:02;4.01;74.53
28175;SHT30;59417;44.788;10.334;2024-01-10T05:41:31;3.94;74.90
28175;SHT30;59417;44.788;10.334;2024-01-10T05:44:02;4.04;74.56
28175;SHT30;59417;44.788;10.334;2024-01-10T05:46:32;3.95;75.01
28175;SHT30;59417;44.788;10.334;2024-01-10T05:49:02;3.84;75.37
28175;SHT30;59417;44.788;10.334;2024-01-10T05:51:33;3.80;75.78
28175;SHT30;59417;44.788;10.334;2024-01-10T05:54:06;3.89;75.67
28175;SHT30;59417;44.788;10.334;2024-01-10T05:56:35;3.93;75.06
28175;SHT30;59417;44.788;10.334;2024-01-10T05:59:09;4.12;74.71
28175;SHT30;59417;44.788;10.334;2024-01-10T06:01:40;4.12;74.47
28175;SHT30;59417;44.788;10.334;2024-01-10T06:04:11;3.93;75.34
28175;SHT30;59417;44.788;10.334;2024-01-10T06:06:39;3.90;75.46
28175;SHT30;59417;44.788;10.334;2024-01-10T06:09:05;4.08;74.62
28175;SHT30;59417;44.788;10.334;2024-01-10T06:11:43;4.32;74.11
28175;SHT30;59417;44.788;10.334;2024-01-10T06:14:12;4.08;74.83
28175;SHT30;59417;44.788;10.334;2024-01-10T06:16:38;4.05;75.07
28175;SHT30;59417;44.788;10.334;2024-01-10T06:19:04;4.04;74.80
28175;SHT30;59417;44.788;10.334;2024-01-10T06:21:30;4.11;74.76
28175;SHT30;59417;44.788;10.334;2024-01-10T06:23:57;4.01;74.87
28175;SHT30;59417;44.788;10.334;2024-01-10T06:26:24;4.04;74.71
28175;SHT30;59417;44.788;10.334;2024-01-10T06:28:51;4.12;74.15
28175;SHT30;59417;44.788;10.334;2024-01-10T06:31:19;4.11;73.91
28175;SHT30;59417;44.788;10.334;2024-01-10T06:33:47;4.10;73.94
28175;SHT30;59417;44.788;10.334;2024-01-10T06:36:13;3.93;74.42
28175;SHT30;59417;44.788;10.334;2024-01-10T06:38:40;4.17;74.05
28175;SHT30;59417;44.788;10.334;2024-01-10T06:41:09;4.12;74.19
28175;SHT30;59417;44.788;10.334;2024-01-10T06:43:43;4.07;74.06
28175;SHT30;59417;44.788;10.334;2024-01-10T06:46:12;3.97;74.25
28175;SHT30;59417;44.788;10.334;2024-01-10T06:48:40;3.87;74.69
28175;SHT30;59417;44.788;10.334;2024-01-10T06:51:12;3.98;74.27
28175;SHT30;59417;44.788;10.334;2024-01-10T06:53:40;4.21;73.63
28175;SHT30;59417;44.788;10.334;2024-01-10T06:56:10;4.07;73.87
28175;SHT30;59417;44.788;10.334;2024-01-10T06:58:37;3.84;74.75
28175;SHT30;59417;44.788;10.334;2024-01-10T07:01:10;4.07;74.45
28175;SHT30;59417;44.788;10.334;2024-01-10T07:03:43;4.04;74.57
28175;SHT30;59417;44.788;10.334;2024-01-10T07:06:13;4.02;74.42
28175;SHT30;59417;44.788;10.334;2024-01-10T07:08:44;4.14;74.37
28175;SHT30;59417;44.788;10.334;2024-01-10T07:11:11;3.87;75.10
28175;SHT30;59417;44.788;10.334;2024-01-10T07:13:41;3.97;74.65
28175;SHT30;59417;44.788;10.334;2024-01-10T07:16:11;3.98;74.78
28175;SHT30;59417;44.788;10.334;2024-01-10T07:18:43;3.89;75.14
28175;SHT30;59417;44.788;10.334;2024-01-10T07:21:15;3.90;75.16
28175;SHT30;59417;44.788;10.334;2024-01-10T07:23:50;3.87;75.24
28175;SHT30;59417;44.788;10.334;2024-01-10T07:26:20;4.05;74.63
28175;SHT30;59417;44.788;10.334;2024-01-10T07:28:49;4.00;74.87
28175;SHT30;59417;44.788;10.334;2024-01-10T07:31:18;3.95;74.44
28175;SHT30;59417;44.788;10.334;2024-01-10T07:33:51;4.02;74.16
28175;SHT30;59417;44.788;10.334;2024-01-10T07:36:20;4.02;74.32
28175;SHT30;59417;44.788;10.334;2024-01-10T07:38:49;4.00;74.79
28175;SHT30;59417;44.788;10.334;2024-01-10T07:41:19;4.05;74.82
28175;SHT30;59417;44.788;10.334;2024-01-10T07:43:49;3.87;75.65
28175;SHT30;59417;44.788;10.334;2024-01-10T07:46:23;3.83;75.88
28175;SHT30;59417;44.788;10.334;2024-01-10T07:48:55;3.93;76.04
28175;SHT30;59417;44.788;10.334;2024-01-10T07:51:36;4.11;75.42
28175;SHT30;59417;44.788;10.334;2024-01-10T07:54:33;4.08;74.95
28175;SHT30;59417;44.788;10.334;2024-01-10T07:57:03;3.95;75.34
28175;SHT30;59417;44.788;10.334;2024-01-10T07:59:34;4.04;74.74
28175;SHT30;59417;44.788;10.334;2024-01-10T08:02:07;4.02;74.94
28175;SHT30;59417;44.788;10.334;2024-01-10T08:04:38;4.00;75.10
28175;SHT30;59417;44.788;10.334;2024-01-10T08:07:11;3.97;74.87
28175;SHT30;59417;44.788;10.334;2024-01-10T08:09:39;4.00;74.83
28175;SHT30;59417;44.788;10.334;2024-01-10T08:12:08;3.95;74.98
28175;SHT30;59417;44.788;10.334;2024-01-10T08:14:40;4.05;75.08
28175;SHT30;59417;44.788;10.334;2024-01-10T08:17:08;3.93;75.26
28175;SHT30;59417;44.788;10.334;2024-01-10T08:19:35;3.87;75.76
28175;SHT30;59417;44.788;10.334;2024-01-10T08:22:05;3.93;75.93
28175;SHT30;59417;44.788;10.334;2024-01-10T08:24:38;3.98;75.78
28175;SHT30;59417;44.788;10.334;2024-01-10T08:27:07;4.04;75.91
28175;SHT30;59417;44.788;10.334;2024-01-10T08:29:37;4.12;75.90
28175;SHT30;59417;44.788;10.334;2024-01-10T08:32:07;4.31;75.82
28175;SHT30;59417;44.788;10.334;2024-01-10T08:34:36;4.45;75.59
28175;SHT30;59417;44.788;10.334;2024-01-10T08:37:06;4.66;74.63
28175;SHT30;59417;44.788;10.334;2024-01-10T08:39:34;4.69;74.39
28175;SHT30;59417;44.788;10.334;2024-01-10T08:42:02;4.80;74.02
28175;SHT30;59417;44.788;10.334;2024-01-10T08:44:29;4.97;73.55
28175;SHT30;59417;44.788;10.334;2024-01-10T08:46:58;5.04;73.14
28175;SHT30;59417;44.788;10.334;2024-01-10T08:49:29;5.07;73.35
28175;SHT30;59417;44.788;10.334;2024-01-10T08:52:00;5.28;73.02
28175;SHT30;59417;44.788;10.334;2024-01-10T08:54:31;5.27;72.70
28175;SHT30;59417;44.788;10.334;2024-01-10T08:57:01;5.51;70.78
28175;SHT30;59417;44.788;10.334;2024-01-10T08:59:34;5.47;71.16
28175;SHT30;59417;44.788;10.334;2024-01-10T09:02:07;5.68;71.70
28175;SHT30;59417;44.788;10.334;2024-01-10T09:04:35;5.48;72.10
28175;SHT30;59417;44.788;10.334;2024-01-10T09:07:06;5.57;70.89
28175;SHT30;59417;44.788;10.334;2024-01-10T09:09:52;5.32;72.28
28175;SHT30;59417;44.788;10.334;2024-01-10T09:12:42;5.10;72.83
28175;SHT30;59417;44.788;10.334;2024-01-10T09:15:29;5.42;71.58
28175;SHT30;59417;44.788;10.334;2024-01-10T09:18:13;5.39;71.28
28175;SHT30;59417;44.788;10.334;2024-01-10T09:20:42;5.37;70.43
28175;SHT30;59417;44.788;10.334;2024-01-10T09:23:12;5.48;69.62
28175;SHT30;59417;44.788;10.334;2024-01-10T09:25:48;5.54;69.49
28175;SHT30;59417;44.788;10.334;2024-01-10T09:28:40;5.64;68.85
28175;SHT30;59417;44.788;10.334;2024-01-10T09:31:11;5.71;68.14
28175;SHT30;59417;44.788;10.334;2024-01-10T09:33:44;5.74;68.12
28175;SHT30;59417;44.788;10.334;2024-01-10T09:36:24;5.74;67.08
28175;SHT30;59417;44.788;10.334;2024-01-10T09:39:19;5.78;65.97
28175;SHT30;59417;44.788;10.334;2024-01-10T09:42:09;5.82;66.42
28175;SHT30;59417;44.788;10.334;2024-01-10T09:44:59;6.21;64.82
28175;SHT30;59417;44.788;10.334;2024-01-10T09:47:32;6.21;63.56
28175;SHT30;59417;44.788;10.334;2024-01-10T09:50:18;6.33;62.17
28175;SHT30;59417;44.788;10.334;2024-01-10T09:52:53;6.26;63.13
28175;SHT30;59417;44.788;10.334;2024-01-10T09:55:34;6.20;63.67
28175;SHT30;59417;44.788;10.334;2024-01-10T09:58:06;6.26;62.97
28175;SHT30;59417;44.788;10.334;2024-01-10T10:00:45;6.26;62.55
28175;SHT30;59417;44.788;10.334;2024-01-10T10:03:21;6.37;61.68
28175;SHT30;59417;44.788;10.334;2024-01-10T10:05:55;6.37;62.28
28175;SHT30;59417;44.788;10.334;2024-01-10T10:08:28;6.57;61.36
28175;SHT30;59417;44.788;10.334;2024-01-10T10:11:47;6.41;61.83
28175;SHT30;59417;44.788;10.334;2024-01-10T10:14:34;6.41;62.21
28175;SHT30;59417;44.788;10.334;2024-01-10T10:17:30;6.38;62.97
28175;SHT30;59417;44.788;10.334;2024-01-10T10:20:31;6.33;62.73
28175;SHT30;59417;44.788;10.334;2024-01-10T10:23:14;6.36;62.36
28175;SHT30;59417;44.788;10.334;2024-01-10T10:25:50;6.33;62.29
28175;SHT30;59417;44.788;10.334;2024-01-10T10:28:29;6.26;61.66
28175;SHT30;59417;44.788;10.334;2024-01-10T10:31:05;6.34;62.01
28175;SHT30;59417;44.788;10.334;2024-01-10T10:34:23;6.43;61.97
28175;SHT30;59417;44.788;10.334;2024-01-10T10:36:54;6.40;61.70
28175;SHT30;59417;44.788;10.334;2024-01-10T10:39:33;6.43;60.31
28175;SHT30;59417;44.788;10.334;2024-01-10T10:42:16;6.55;60.17
28175;SHT30;59417;44.788;10.334;2024-01-10T10:45:09;6.61;59.98
28175;SHT30;59417;44.788;10.334;2024-01-10T10:48:11;6.67;59.39
28175;SHT30;59417;44.788;10.334;2024-01-10T10:54:28;6.60;59.28
28175;SHT30;59417;44.788;10.334;2024-01-10T10:57:08;6.77;58.61
28175;SHT30;59417;44.788;10.334;2024-01-10T10:59:58;6.85;58.81
28175;SHT30;59417;44.788;10.334;2024-01-10T11:02:30;7.09;57.20
28175;SHT30;59417;44.788;10.334;2024-01-10T11:05:03;7.12;56.10
28175;SHT30;59417;44.788;10.334;2024-01-10T11:07:44;7.16;54.05
28175;SHT30;59417;44.788;10.334;2024-01-10T11:10:36;7.11;54.91
28175;SHT30;59417;44.788;10.334;2024-01-10T11:13:53;7.06;55.24
28175;SHT30;59417;44.788;10.334;2024-01-10T11:16:30;7.02;55.07
28175;SHT30;59417;44.788;10.334;2024-01-10T11:25:28;7.15;55.07
28175;SHT30;59417;44.788;10.334;2024-01-10T11:28:12;7.19;55.82
28175;SHT30;59417;44.788;10.334;2024-01-10T11:30:50;7.19;57.03
28175;SHT30;59417;44.788;10.334;2024-01-10T11:33:32;7.40;57.07
28175;SHT30;59417;44.788;10.334;2024-01-10T11:36:18;7.09;55.96
28175;SHT30;59417;44.788;10.334;2024-01-10T11:38:58;7.25;56.44
28175;SHT30;59417;44.788;10.334;2024-01-10T11:41:35;7.39;55.95
28175;SHT30;59417;44.788;10.334;2024-01-10T11:44:30;7.36;54.37
28175;SHT30;59417;44.788;10.334;2024-01-10T11:47:04;7.44;54.16
28175;SHT30;59417;44.788;10.334;2024-01-10T11:49:36;7.43;55.74
28175;SHT30;59417;44.788;10.334;2024-01-10T11:52:31;7.47;53.69
28175;SHT30;59417;44.788;10.334;2024-01-10T12:03:13;7.60;56.19
28175;SHT30;59417;44.788;10.334;2024-01-10T12:05:53;7.56;56.34
28175;SHT30;59417;44.788;10.334;2024-01-10T12:12:24;7.60;55.44
28175;SHT30;59417;44.788;10.334;2024-01-10T12:14:50;7.73;56.09
28175;SHT30;59417;44.788;10.334;2024-01-10T12:17:20;7.80;55.95
28175;SHT30;59417;44.788;10.334;2024-01-10T12:19:51;7.70;55.69
28175;SHT30;59417;44.788;10.334;2024-01-10T12:22:19;7.68;55.36
28175;SHT30;59417;44.788;10.334;2024-01-10T12:24:48;7.70;55.19
28175;SHT30;59417;44.788;10.334;2024-01-10T12:27:18;7.93;55.36
28175;SHT30;59417;44.788;10.334;2024-01-10T12:29:47;7.91;53.44
28175;SHT30;59417;44.788;10.334;2024-01-10T12:32:18;7.93;54.13
28175;SHT30;59417;44.788;10.334;2024-01-10T12:34:46;7.90;54.80
28175;SHT30;59417;44.788;10.334;2024-01-10T12:37:13;7.77;54.83
28175;SHT30;59417;44.788;10.334;2024-01-10T12:39:39;7.66;54.97
28175;SHT30;59417;44.788;10.334;2024-01-10T12:42:05;7.86;55.29
28175;SHT30;59417;44.788;10.334;2024-01-10T12:44:32;7.83;54.76
28175;SHT30;59417;44.788;10.334;2024-01-10T12:47:00;7.93;54.53
28175;SHT30;59417;44.788;10.334;2024-01-10T12:49:26;7.98;54.40
28175;SHT30;59417;44.788;10.334;2024-01-10T12:51:56;7.88;55.39
28175;SHT30;59417;44.788;10.334;2024-01-10T12:54:24;8.14;54.75
28175;SHT30;59417;44.788;10.334;2024-01-10T12:56:57;8.05;55.78
28175;SHT30;59417;44.788;10.334;2024-01-10T12:59:23;8.12;56.43
28175;SHT30;59417;44.788;10.334;2024-01-10T13:01:49;8.04;56.04
28175;SHT30;59417;44.788;10.334;2024-01-10T13:04:15;8.17;54.88
28175;SHT30;59417;44.788;10.334;2024-01-10T13:06:42;7.95;55.13
28175;SHT30;59417;44.788;10.334;2024-01-10T13:09:15;8.07;55.43
28175;SHT30;59417;44.788;10.334;2024-01-10T13:11:44;8.04;54.73
28175;SHT30;59417;44.788;10.334;2024-01-10T13:14:11;8.25;54.08
28175;SHT30;59417;44.788;10.334;2024-01-10T13:16:38;8.36;54.58
28175;SHT30;59417;44.788;10.334;2024-01-10T13:19:04;8.48;52.36
28175;SHT30;59417;44.788;10.334;2024-01-10T13:21:31;8.32;54.11
28175;SHT30;59417;44.788;10.334;2024-01-10T13:23:57;8.66;53.18
28175;SHT30;59417;44.788;10.334;2024-01-10T13:26:25;8.64;52.34
28175;SHT30;59417;44.788;10.334;2024-01-10T13:28:55;8.54;50.52
28175;SHT30;59417;44.788;10.334;2024-01-10T13:31:25;8.15;52.09
28175;SHT30;59417;44.788;10.334;2024-01-10T13:33:51;8.32;51.57
28175;SHT30;59417;44.788;10.334;2024-01-10T13:36:17;8.15;52.14
28175;SHT30;59417;44.788;10.334;2024-01-10T13:38:46;8.56;51.17
28175;SHT30;59417;44.788;10.334;2024-01-10T13:41:13;8.67;50.88
28175;SHT30;59417;44.788;10.334;2024-01-10T13:43:41;8.45;50.97
28175;SHT30;59417;44.788;10.334;2024-01-10T13:46:08;8.49;51.33
28175;SHT30;59417;44.788;10.334;2024-01-10T13:48:35;8.31;51.68
28175;SHT30;59417;44.788;10.334;2024-01-10T13:51:01;8.42;51.55
28175;SHT30;59417;44.788;10.334;2024-01-10T13:53:27;8.70;51.18
28175;SHT30;59417;44.788;10.334;2024-01-10T13:55:53;8.74;51.64
28175;SHT30;59417;44.788;10.334;2024-01-10T13:58:19;8.74;51.24
28175;SHT30;59417;44.788;10.334;2024-01-10T14:00:49;8.64;52.85
28175;SHT30;59417;44.788;10.334;2024-01-10T14:03:16;8.60;52.92
28175;SHT30;59417;44.788;10.334;2024-01-10T14:05:47;8.76;52.58
28175;SHT30;59417;44.788;10.334;2024-01-10T14:08:14;8.56;53.32
28175;SHT30;59417;44.788;10.334;2024-01-10T14:10:43;8.72;53.73
28175;SHT30;59417;44.788;10.334;2024-01-10T14:13:12;8.77;53.18
28175;SHT30;59417;44.788;10.334;2024-01-10T14:15:43;8.72;52.44
28175;SHT30;59417;44.788;10.334;2024-01-10T14:18:17;8.62;52.91
28175;SHT30;59417;44.788;10.334;2024-01-10T14:20:49;8.86;53.67
28175;SHT30;59417;44.788;10.334;2024-01-10T14:23:20;8.74;50.87
28175;SHT30;59417;44.788;10.334;2024-01-10T14:26:00;8.45;52.07
28175;SHT30;59417;44.788;10.334;2024-01-10T14:28:30;8.21;52.62
28175;SHT30;59417;44.788;10.334;2024-01-10T14:31:04;8.12;53.30
28175;SHT30;59417;44.788;10.334;2024-01-10T14:33:40;8.14;54.30
28175;SHT30;59417;44.788;10.334;2024-01-10T14:36:07;8.04;54.29
28175;SHT30;59417;44.788;10.334;2024-01-10T14:39:16;8.10;54.09
28175;SHT30;59417;44.788;10.334;2024-01-10T14:41:50;8.01;53.89
28175;SHT30;59417;44.788;10.334;2024-01-10T14:44:16;7.90;55.22
28175;SHT30;59417;44.788;10.334;2024-01-10T14:49:32;7.70;54.49
28175;SHT30;59417;44.788;10.334;2024-01-10T14:52:08;7.57;55.43
28175;SHT30;59417;44.788;10.334;2024-01-10T14:54:39;7.57;56.55
28175;SHT30;59417;44.788;10.334;2024-01-10T14:57:12;7.44;56.34
28175;SHT30;59417;44.788;10.334;2024-01-10T14:59:55;7.51;56.43
28175;SHT30;59417;44.788;10.334;2024-01-10T15:02:24;7.47;57.05
28175;SHT30;59417;44.788;10.334;2024-01-10T15:04:56;7.70;56.29
28175;SHT30;59417;44.788;10.334;2024-01-10T15:07:34;7.68;55.19
28175;SHT30;59417;44.788;10.334;2024-01-10T15:10:04;7.57;56.08
28175;SHT30;59417;44.788;10.334;2024-01-10T15:12:34;7.67;55.92
28175;SHT30;59417;44.788;10.334;2024-01-10T15:15:05;7.57;56.12
28175;SHT30;59417;44.788;10.334;2024-01-10T15:17:33;7.53;57.41
28175;SHT30;59417;44.788;10.334;2024-01-10T15:20:01;7.47;57.52
28175;SHT30;59417;44.788;10.334;2024-01-10T15:22:35;7.27;57.52
28175;SHT30;59417;44.788;10.334;2024-01-10T15:25:15;7.37;57.47
28175;SHT30;59417;44.788;10.334;2024-01-10T15:27:43;7.22;57.83
28175;SHT30;59417;44.788;10.334;2024-01-10T15:30:17;7.23;58.39
28175;SHT30;59417;44.788;10.334;2024-01-10T15:32:51;7.25;58.50
28175;SHT30;59417;44.788;10.334;2024-01-10T15:35:18;7.23;58.57
28175;SHT30;59417;44.788;10.334;2024-01-10T15:37:49;7.25;57.97
28175;SHT30;59417;44.788;10.334;2024-01-10T15:40:17;7.27;58.16
28175;SHT30;59417;44.788;10.334;2024-01-10T15:43:01;7.14;58.45
28175;SHT30;59417;44.788;10.334;2024-01-10T15:45:29;7.12;58.31
28175;SHT30;59417;44.788;10.334;2024-01-10T15:48:01;7.06;59.18
28175;SHT30;59417;44.788;10.334;2024-01-10T15:50:28;7.02;59.42
28175;SHT30;59417;44.788;10.334;2024-01-10T15:52:54;6.99;59.76
28175;SHT30;59417;44.788;10.334;2024-01-10T15:55:20;6.91;60.02
28175;SHT30;59417;44.788;10.334;2024-01-10T15:57:47;6.87;60.21
28175;SHT30;59417;44.788;10.334;2024-01-10T16:00:14;6.77;60.45
28175;SHT30;59417;44.788;10.334;2024-01-10T16:02:41;6.74;61.01
28175;SHT30;59417;44.788;10.334;2024-01-10T16:05:11;6.73;61.15
28175;SHT30;59417;44.788;10.334;2024-01-10T16:07:37;6.71;61.62
28175;SHT30;59417;44.788;10.334;2024-01-10T16:10:04;6.61;61.58
28175;SHT30;59417;44.788;10.334;2024-01-10T16:12:32;6.55;61.70
28175;SHT30;59417;44.788;10.334;2024-01-10T16:14:59;6.54;61.91
28175;SHT30;59417;44.788;10.334;2024-01-10T16:17:29;6.47;62.05
28175;SHT30;59417;44.788;10.334;2024-01-10T16:20:06;6.53;61.94
28175;SHT30;59417;44.788;10.334;2024-01-10T16:22:35;6.55;62.27
28175;SHT30;59417;44.788;10.334;2024-01-10T16:25:03;6.50;62.42